createdAt,value
2019-01-12T00:00:02.594Z,-0.8
2019-01-12T00:15:03.097Z,-0.6
2019-01-12T00:30:02.498Z,-0.5
2019-01-12T00:45:02.826Z,-0.4
2019-01-12T01:00:03.381Z,-0.4
2019-01-12T01:15:02.668Z,-0.3
2019-01-12T01:30:03.080Z,-0.2
2019-01-12T01:45:03.307Z,-0.1
2019-01-12T02:00:02.582Z,-0.1
2019-01-12T02:15:03.289Z,-0.1
2019-01-12T02:30:02.870Z,0.1
2019-01-12T02:45:03.222Z,0.2
2019-01-12T03:00:02.461Z,0.3
2019-01-12T03:15:02.826Z,0.4
2019-01-12T03:30:03.975Z,0.4
2019-01-12T03:45:03.453Z,0.4
2019-01-12T04:00:02.988Z,0.4
2019-01-12T04:15:03.229Z,0.5
2019-01-12T04:30:02.544Z,0.5
2019-01-12T04:45:03.061Z,0.5
2019-01-12T05:00:03.303Z,0.6
2019-01-12T05:15:02.579Z,0.6
2019-01-12T05:30:03.068Z,0.7
2019-01-12T05:45:03.378Z,0.7
2019-01-12T06:00:02.630Z,0.7
2019-01-12T06:15:03.097Z,0.8
2019-01-12T06:30:02.660Z,0.8
2019-01-12T06:45:02.904Z,0.8
2019-01-12T07:00:03.137Z,0.8
2019-01-12T07:15:03.452Z,0.8
2019-01-12T07:30:02.819Z,0.9
2019-01-12T07:45:03.073Z,1.1
2019-01-12T08:00:03.666Z,1.2
2019-01-12T08:15:02.663Z,1.3
2019-01-12T08:30:03.056Z,1.4
2019-01-12T08:45:03.365Z,1.4
2019-01-12T09:00:02.656Z,1.2
2019-01-12T09:15:02.986Z,1.2
2019-01-12T09:30:02.839Z,1.2
2019-01-12T09:45:03.222Z,1.5
2019-01-12T10:00:03.600Z,1.6
2019-01-12T10:15:02.801Z,1.7
2019-01-12T10:30:03.107Z,2
2019-01-12T10:45:04.622Z,2.1
2019-01-12T11:00:02.628Z,2.2
2019-01-12T11:15:02.931Z,2.2
2019-01-12T11:30:02.990Z,2.4
2019-01-12T11:45:03.387Z,2.2
2019-01-12T12:00:02.716Z,2.3
2019-01-12T12:15:03.017Z,2.7
2019-01-12T12:30:03.540Z,2.4
2019-01-12T12:45:03.097Z,2.4
2019-01-12T13:00:03.782Z,2.2
2019-01-12T13:15:02.503Z,2.2
2019-01-12T13:30:03.343Z,2.2
2019-01-12T13:45:03.449Z,2.4
2019-01-12T14:00:02.740Z,2.4
2019-01-12T14:15:03.350Z,2.3
2019-01-12T14:30:05.176Z,2.2
2019-01-12T14:45:03.290Z,2.1
2019-01-12T15:00:02.431Z,2.2
2019-01-12T15:15:02.876Z,2.1
2019-01-12T15:30:03.144Z,2.1
2019-01-12T15:45:03.381Z,1.9
2019-01-12T16:00:02.633Z,1.8
2019-01-12T16:15:03.163Z,1.9
2019-01-12T16:30:02.485Z,1.7
2019-01-12T16:45:02.880Z,1.8
2019-01-12T17:00:03.318Z,1.8
2019-01-12T17:15:02.595Z,1.9
2019-01-12T17:30:02.939Z,1.9
2019-01-12T17:45:03.229Z,2.1
2019-01-12T18:00:02.506Z,2.1
2019-01-12T18:15:02.817Z,2.1
2019-01-12T18:30:03.222Z,2.1
2019-01-12T18:45:02.788Z,2
2019-01-12T19:00:03.105Z,1.8
2019-01-12T19:15:03.292Z,1.6
2019-01-12T19:30:02.509Z,1.4
2019-01-12T19:45:02.816Z,1.3
2019-01-12T20:00:03.138Z,1.3
2019-01-12T20:15:03.369Z,1.3
2019-01-12T20:30:02.928Z,1.3
2019-01-12T20:45:03.060Z,1.2
2019-01-12T21:00:03.343Z,1.2
2019-01-12T21:15:02.586Z,1.2
2019-01-12T21:30:02.989Z,1.2
2019-01-12T21:45:03.214Z,1.1
2019-01-12T22:00:03.108Z,1.1
2019-01-12T22:15:03.274Z,1
2019-01-12T22:30:02.947Z,0.9
2019-01-12T22:45:03.197Z,0.9
2019-01-12T23:00:03.389Z,0.9
2019-01-12T23:15:02.663Z,1
2019-01-12T23:30:04.481Z,1.2
2019-01-12T23:45:03.302Z,1.4
